Time;durP1;ratioP1;P1;durP2;ratioP2;P2;SDS_P1;SDS_P2;PMS_P1;PMS_P2;Temp;Humidity;BMP_temperature;BMP_pressure;BME280_temperature;BME280_humidity;BME280_pressure;Samples;Min_cycle;Max_cycle;Signal;HPM_P1;HPM_P2
2022/04/22 00:02:13;;;;;;;13.40;11.48;;;7.40;99.90;;;;;;5033479;28;20033;-57
2022/04/22 00:04:39;;;;;;;16.85;10.77;;;7.40;99.90;;;;;;5033756;28;20026;-57
2022/04/22 00:07:05;;;;;;;12.00;10.05;;;7.40;99.90;;;;;;5033626;28;20390;-53
2022/04/22 00:09:31;;;;;;;12.43;11.00;;;7.40;99.90;;;;;;5033547;28;20484;-56
2022/04/22 00:11:56;;;;;;;15.10;11.10;;;7.40;99.90;;;;;;5033531;28;20097;-56
2022/04/22 00:14:22;;;;;;;13.05;10.63;;;7.40;99.90;;;;;;5033387;28;20541;-53
2022/04/22 00:16:48;;;;;;;11.50;10.27;;;7.40;99.90;;;;;;5033305;28;20026;-55
2022/04/22 00:19:14;;;;;;;10.50;9.30;;;7.40;99.90;;;;;;5033457;28;20079;-55
2022/04/22 00:21:43;;;;;;;15.23;10.55;;;7.40;99.90;;;;;;5033413;28;20431;-55
2022/04/22 00:24:09;;;;;;;14.20;10.98;;;7.40;99.90;;;;;;5033415;28;20014;-54
2022/04/22 00:26:34;;;;;;;12.55;10.35;;;7.30;99.90;;;;;;5033531;28;20021;-55
2022/04/22 00:29:01;;;;;;;11.45;10.18;;;7.30;99.90;;;;;;5033104;28;20017;-58
2022/04/22 00:31:26;;;;;;;11.23;9.98;;;7.30;99.90;;;;;;5033058;28;20147;-56
2022/04/22 00:33:52;;;;;;;11.60;10.30;;;7.30;99.90;;;;;;5033098;28;20029;-54
2022/04/22 00:36:18;;;;;;;12.07;10.77;;;7.20;99.90;;;;;;5033010;28;20028;-56
2022/04/22 00:38:43;;;;;;;17.63;10.63;;;7.20;99.90;;;;;;5033236;28;20029;-53
2022/04/22 00:41:09;;;;;;;12.07;10.48;;;7.10;99.90;;;;;;5032990;28;20025;-54
2022/04/22 00:43:44;;;;;;;12.57;10.80;;;7.10;99.90;;;;;;5032975;28;20037;-54
2022/04/22 00:46:10;;;;;;;13.27;10.10;;;7.10;99.90;;;;;;5031559;28;20032;-53
2022/04/22 00:48:36;;;;;;;14.77;11.38;;;7.10;99.90;;;;;;5033049;28;20021;-54
2022/04/22 00:51:07;;;;;;;12.70;10.38;;;7.10;99.90;;;;;;5032689;28;20029;-56
2022/04/22 00:53:41;;;;;;;12.13;10.13;;;7.10;99.90;;;;;;5032863;28;20049;-53
2022/04/22 00:56:09;;;;;;;11.70;10.35;;;7.10;99.90;;;;;;5032539;28;20030;-55
2022/04/22 00:58:39;;;;;;;18.50;11.60;;;7.10;99.90;;;;;;5032750;28;20116;-54
2022/04/22 01:01:05;;;;;;;14.73;10.40;;;7.10;99.90;;;;;;5032201;28;20056;-58
2022/04/22 01:03:31;;;;;;;12.80;10.80;;;7.00;99.90;;;;;;5032568;28;20059;-55
2022/04/22 01:11:32;;;;;;;13.18;10.50;;;7.00;99.90;;;;;;5032389;28;20095;-57
2022/04/22 01:13:59;;;;;;;15.60;10.75;;;7.00;99.90;;;;;;5032218;28;20037;-55
2022/04/22 01:16:25;;;;;;;18.95;12.40;;;7.00;99.90;;;;;;5032351;28;20437;-54
2022/04/22 01:18:51;;;;;;;12.73;10.63;;;7.00;99.90;;;;;;5032227;28;20017;-56
2022/04/22 01:21:18;;;;;;;12.18;10.90;;;6.90;99.90;;;;;;5032232;28;20025;-55
2022/04/22 01:23:43;;;;;;;11.95;10.50;;;6.90;99.90;;;;;;5032142;28;20029;-55
2022/04/22 01:26:10;;;;;;;14.00;10.80;;;6.80;99.90;;;;;;5032247;28;20071;-57
2022/04/22 01:28:36;;;;;;;14.60;10.73;;;6.80;99.90;;;;;;5032243;28;20339;-55
2022/04/22 01:31:02;;;;;;;12.98;10.65;;;6.90;99.90;;;;;;5032052;28;20021;-56
2022/04/22 01:33:28;;;;;;;12.27;10.98;;;6.90;99.90;;;;;;5032162;28;20066;-53
2022/04/22 01:35:53;;;;;;;11.50;10.23;;;7.00;99.90;;;;;;5031790;28;20481;-56
2022/04/22 01:38:19;;;;;;;12.88;10.95;;;6.90;99.90;;;;;;5031912;28;20495;-55
2022/04/22 01:40:45;;;;;;;13.02;10.88;;;6.90;99.90;;;;;;5031886;28;20480;-54
2022/04/22 01:43:11;;;;;;;12.45;10.70;;;7.00;99.90;;;;;;5031747;28;20044;-54
2022/04/22 01:45:37;;;;;;;19.33;10.85;;;7.00;99.90;;;;;;5031940;28;20112;-55
2022/04/22 01:48:03;;;;;;;10.93;9.80;;;6.90;99.90;;;;;;5031810;28;20025;-56
2022/04/22 01:50:28;;;;;;;16.17;10.63;;;6.90;99.90;;;;;;5031684;28;20488;-52
2022/04/22 01:52:54;;;;;;;13.13;10.88;;;6.90;99.90;;;;;;5031722;28;20028;-54
2022/04/22 01:55:20;;;;;;;11.77;10.57;;;6.90;99.90;;;;;;5031435;28;20026;-55
2022/04/22 01:57:46;;;;;;;11.82;10.00;;;6.90;99.90;;;;;;5031669;28;20049;-55
2022/04/22 02:00:12;;;;;;;10.50;9.50;;;6.90;99.90;;;;;;5031519;28;20100;-56
2022/04/22 02:02:38;;;;;;;11.00;9.85;;;6.90;99.90;;;;;;5031634;28;20077;-58
2022/04/22 02:05:05;;;;;;;10.77;9.73;;;6.90;99.90;;;;;;5031405;28;20018;-52
2022/04/22 02:07:31;;;;;;;14.02;9.90;;;6.90;99.90;;;;;;5031344;28;20029;-57
2022/04/22 02:09:57;;;;;;;11.85;10.40;;;6.90;99.90;;;;;;5031079;28;20025;-53
2022/04/22 02:12:23;;;;;;;10.80;9.70;;;6.90;99.90;;;;;;5030451;28;20480;-55
2022/04/22 02:14:48;;;;;;;14.70;10.82;;;6.90;99.90;;;;;;5031179;28;20405;-55
2022/04/22 02:17:14;;;;;;;12.32;9.50;;;7.00;99.90;;;;;;5031019;28;20048;-56
2022/04/22 02:19:41;;;;;;;17.13;11.02;;;6.90;99.90;;;;;;5031278;28;20096;-57
2022/04/22 02:22:07;;;;;;;11.65;10.45;;;6.90;99.90;;;;;;5031085;28;20040;-56
2022/04/22 02:24:33;;;;;;;11.43;10.00;;;7.00;99.90;;;;;;5031222;28;20025;-55
2022/04/22 02:29:42;;;;;;;16.38;9.57;;;7.00;99.90;;;;;;5031034;28;20041;-54
2022/04/22 02:32:08;;;;;;;13.27;9.63;;;7.00;99.90;;;;;;5030715;28;20389;-55
2022/04/22 02:34:34;;;;;;;12.15;10.13;;;7.00;99.90;;;;;;5030830;28;20464;-57
2022/04/22 02:37:00;;;;;;;16.42;10.55;;;7.00;99.90;;;;;;5030787;28;20018;-53
2022/04/22 02:39:25;;;;;;;12.35;10.80;;;6.90;99.90;;;;;;5030724;28;20209;-55
2022/04/22 02:47:19;;;;;;;12.52;9.68;;;6.90;99.90;;;;;;5030968;28;20037;-55
2022/04/22 02:49:45;;;;;;;11.77;9.95;;;6.90;99.90;;;;;;5030598;28;20414;-55
2022/04/22 02:52:12;;;;;;;11.30;10.18;;;6.90;99.90;;;;;;5030600;28;20229;-55
2022/04/22 02:54:38;;;;;;;14.95;9.57;;;6.80;99.90;;;;;;5030481;28;20052;-54
2022/04/22 02:57:05;;;;;;;11.80;10.13;;;6.70;99.90;;;;;;5030570;28;20380;-55
2022/04/22 02:59:31;;;;;;;14.20;10.18;;;6.70;99.90;;;;;;5030480;28;20125;-54
2022/04/22 03:01:57;;;;;;;16.70;9.93;;;6.60;99.90;;;;;;5030469;28;20475;-56
2022/04/22 03:04:24;;;;;;;11.50;10.30;;;6.60;99.90;;;;;;5030724;28;20033;-56
2022/04/22 03:06:50;;;;;;;13.52;10.88;;;6.50;99.90;;;;;;5030412;28;20041;-54
2022/04/22 03:09:16;;;;;;;14.25;11.70;;;6.40;99.90;;;;;;5030369;28;20121;-57
2022/04/22 03:11:42;;;;;;;12.57;10.05;;;6.30;99.90;;;;;;5030542;28;20057;-56
2022/04/22 03:14:08;;;;;;;12.10;10.80;;;6.30;99.90;;;;;;5029973;28;20099;-56
2022/04/22 03:16:35;;;;;;;13.80;10.77;;;6.30;99.90;;;;;;5030553;28;20121;-56
2022/04/22 03:19:01;;;;;;;17.33;11.48;;;6.30;99.90;;;;;;5030315;28;20032;-57
2022/04/22 03:21:26;;;;;;;12.40;10.52;;;6.30;99.90;;;;;;5030249;28;20037;-55
2022/04/22 03:23:52;;;;;;;19.45;12.93;;;6.30;99.90;;;;;;5031428;28;20504;-57
2022/04/22 03:26:18;;;;;;;13.27;10.90;;;6.40;99.90;;;;;;5033075;28;20030;-57
2022/04/22 03:28:44;;;;;;;12.02;10.20;;;6.40;99.90;;;;;;5034388;28;20029;-57
2022/04/22 03:31:10;;;;;;;12.52;10.07;;;6.40;99.90;;;;;;5034091;28;20044;-57
2022/04/22 03:33:36;;;;;;;18.65;11.02;;;6.40;99.90;;;;;;5034406;28;20056;-55
2022/04/22 03:36:02;;;;;;;13.18;10.75;;;6.40;99.90;;;;;;5034336;28;20489;-57
2022/04/22 03:38:29;;;;;;;12.45;11.15;;;6.40;99.90;;;;;;5034122;28;20033;-57
2022/04/22 03:40:55;;;;;;;13.88;11.43;;;6.40;99.90;;;;;;5034021;28;20017;-54
2022/04/22 03:43:21;;;;;;;15.25;11.80;;;6.30;99.90;;;;;;5033957;28;20033;-56
2022/04/22 03:45:48;;;;;;;14.25;11.05;;;6.20;99.90;;;;;;5034152;28;20032;-57
2022/04/22 03:48:14;;;;;;;15.15;10.85;;;6.20;99.90;;;;;;5033846;28;20025;-54
2022/04/22 03:50:40;;;;;;;13.13;11.50;;;6.20;99.90;;;;;;5033976;28;20108;-57
2022/04/22 03:53:08;;;;;;;13.95;11.48;;;6.20;99.90;;;;;;5033880;28;20105;-57
2022/04/22 03:55:34;;;;;;;14.00;11.57;;;6.20;99.90;;;;;;5033893;28;20390;-55
2022/04/22 03:58:12;;;;;;;12.43;10.90;;;6.20;99.90;;;;;;5033858;28;20095;-56
2022/04/22 04:00:41;;;;;;;14.27;10.45;;;6.20;99.90;;;;;;5034032;28;20125;-53
2022/04/22 04:03:11;;;;;;;16.88;12.32;;;6.20;99.90;;;;;;5033515;28;20029;-57
2022/04/22 04:05:38;;;;;;;13.50;11.02;;;6.20;99.90;;;;;;5032478;28;20029;-53
2022/04/22 04:08:05;;;;;;;13.35;10.60;;;6.30;99.90;;;;;;5033520;28;20396;-56
2022/04/22 04:15:59;;;;;;;11.43;10.02;;;6.30;99.90;;;;;;5033521;28;20044;-56
2022/04/22 04:18:33;;;;;;;20.00;11.30;;;6.20;99.90;;;;;;5033283;28;20025;-55
2022/04/22 04:23:45;;;;;;;16.52;11.77;;;6.30;99.90;;;;;;5033562;28;20440;-57
2022/04/22 04:26:11;;;;;;;15.25;11.38;;;6.30;99.90;;;;;;5033070;28;20053;-56
2022/04/22 04:28:38;;;;;;;13.70;11.35;;;6.40;99.90;;;;;;5033275;28;20021;-53
2022/04/22 04:31:06;;;;;;;15.98;11.05;;;6.40;99.90;;;;;;5033139;28;20415;-55
2022/04/22 04:33:32;;;;;;;13.55;11.07;;;6.50;99.90;;;;;;5033248;28;20181;-55
2022/04/22 04:35:59;;;;;;;12.70;10.43;;;6.50;99.90;;;;;;5032408;28;20108;-53
2022/04/22 04:38:27;;;;;;;17.75;11.40;;;6.60;99.90;;;;;;5032958;28;20139;-53
2022/04/22 04:40:53;;;;;;;14.95;11.77;;;6.60;99.90;;;;;;5033233;28;20056;-58
2022/04/22 04:43:20;;;;;;;13.18;11.60;;;6.50;99.90;;;;;;5032768;28;20105;-53
2022/04/22 04:45:47;;;;;;;17.65;12.15;;;6.50;99.90;;;;;;5032932;28;20105;-54
2022/04/22 04:48:13;;;;;;;17.45;12.52;;;6.60;99.90;;;;;;5032687;28;20483;-53
2022/04/22 04:50:43;;;;;;;17.35;11.95;;;6.50;99.90;;;;;;5032696;28;20428;-55
2022/04/22 04:53:09;;;;;;;13.50;11.77;;;6.60;99.90;;;;;;5032756;28;20112;-56
2022/04/22 04:55:35;;;;;;;13.38;11.15;;;6.60;99.90;;;;;;5032851;28;20029;-56
2022/04/22 04:58:01;;;;;;;17.42;13.63;;;6.60;99.90;;;;;;5032953;28;20025;-56
2022/04/22 05:00:26;;;;;;;13.10;10.55;;;6.70;99.90;;;;;;5032362;28;20091;-55
2022/04/22 05:02:52;;;;;;;18.35;12.13;;;6.70;99.90;;;;;;5032838;28;20033;-56
2022/04/22 05:05:18;;;;;;;15.63;11.75;;;6.70;99.90;;;;;;5032482;28;20581;-52
2022/04/22 05:08:01;;;;;;;16.80;12.60;;;6.70;99.90;;;;;;5032552;28;20014;-56
2022/04/22 05:10:29;;;;;;;16.40;12.20;;;6.70;99.90;;;;;;5031822;28;20501;-56
2022/04/22 05:12:56;;;;;;;16.67;12.20;;;6.80;99.90;;;;;;5032249;28;20026;-55
2022/04/22 05:15:23;;;;;;;12.75;10.98;;;6.80;99.90;;;;;;5032103;28;20057;-56
2022/04/22 05:17:49;;;;;;;12.10;10.38;;;6.80;99.90;;;;;;5032449;28;20480;-54
2022/04/22 05:20:17;;;;;;;13.18;11.82;;;6.90;99.90;;;;;;5032132;28;20034;-57
2022/04/22 05:22:43;;;;;;;11.80;10.23;;;7.00;99.90;;;;;;5032626;28;20108;-58
2022/04/22 05:25:11;;;;;;;15.18;11.55;;;7.00;99.90;;;;;;5031914;28;20022;-55
2022/04/22 05:27:37;;;;;;;11.80;10.52;;;7.10;99.90;;;;;;5032117;28;20030;-55
2022/04/22 05:32:53;;;;;;;12.70;11.18;;;7.10;99.90;;;;;;5032339;28;20388;-55
2022/04/22 05:35:21;;;;;;;12.80;10.90;;;7.20;99.90;;;;;;5031831;28;20025;-54
2022/04/22 05:38:04;;;;;;;12.27;10.80;;;7.20;99.90;;;;;;5032011;28;20026;-55
2022/04/22 05:40:35;;;;;;;13.38;9.75;;;7.20;99.90;;;;;;5030539;28;20033;-54
2022/04/22 05:43:01;;;;;;;12.30;10.65;;;7.30;99.90;;;;;;5031801;28;20048;-54
2022/04/22 05:45:28;;;;;;;11.63;10.43;;;7.40;99.90;;;;;;5031645;28;20083;-52
2022/04/22 05:47:56;;;;;;;15.77;10.45;;;7.40;99.90;;;;;;5031774;28;20036;-58
2022/04/22 05:50:22;;;;;;;13.38;10.63;;;7.50;99.90;;;;;;5032506;28;20081;-57
2022/04/22 05:52:48;;;;;;;13.18;9.77;;;7.50;99.90;;;;;;5032808;28;20029;-56
2022/04/22 05:55:18;;;;;;;15.02;12.13;;;7.60;99.90;;;;;;5032408;28;20168;-57
2022/04/22 05:57:47;;;;;;;16.73;12.02;;;7.60;99.90;;;;;;5032840;28;20032;-58
2022/04/22 06:00:14;;;;;;;16.75;10.90;;;7.60;99.90;;;;;;5032549;28;20116;-57
2022/04/22 06:02:46;;;;;;;13.55;11.48;;;7.80;99.90;;;;;;5032707;28;20022;-53
2022/04/22 06:05:14;;;;;;;14.32;11.07;;;7.80;99.90;;;;;;5032602;28;20523;-54
2022/04/22 06:07:41;;;;;;;19.08;11.05;;;7.80;99.90;;;;;;5032456;28;20039;-57
2022/04/22 06:12:53;;;;;;;13.18;9.77;;;8.00;99.90;;;;;;5032780;28;20106;-55
2022/04/22 06:15:19;;;;;;;16.83;10.18;;;8.00;99.90;;;;;;5032190;28;20041;-55
2022/04/22 06:17:46;;;;;;;16.08;10.65;;;8.10;99.90;;;;;;5032268;28;20028;-56
2022/04/22 06:20:12;;;;;;;14.05;11.07;;;8.10;99.90;;;;;;5032360;28;20494;-55
2022/04/22 06:22:38;;;;;;;14.13;10.32;;;8.10;99.90;;;;;;5032485;28;20052;-54
2022/04/22 06:25:05;;;;;;;12.80;10.95;;;8.20;99.90;;;;;;5032345;28;20489;-57
2022/04/22 06:27:35;;;;;;;19.23;10.45;;;8.20;99.90;;;;;;5032051;28;20032;-57
2022/04/22 06:30:07;;;;;;;11.75;10.30;;;8.30;99.90;;;;;;5032003;28;20037;-55
2022/04/22 06:32:33;;;;;;;12.98;10.77;;;8.40;99.90;;;;;;5032005;28;20034;-55
2022/04/22 06:34:59;;;;;;;15.77;11.20;;;8.50;99.90;;;;;;5032165;28;20057;-55
2022/04/22 06:37:25;;;;;;;12.80;9.95;;;8.60;99.90;;;;;;5031816;28;20061;-56
2022/04/22 06:48:06;;;;;;;14.82;11.98;;;8.80;99.90;;;;;;5042277;28;20040;-58
2022/04/22 06:50:32;;;;;;;16.35;11.00;;;8.90;99.90;;;;;;5042220;28;20032;-57
2022/04/22 06:52:58;;;;;;;15.43;11.25;;;8.90;99.90;;;;;;5041894;28;20491;-56
2022/04/22 06:55:24;;;;;;;14.38;10.55;;;9.10;99.90;;;;;;5022285;28;20051;-57
2022/04/22 06:57:50;;;;;;;18.60;11.50;;;9.10;99.90;;;;;;5022193;28;20457;-55
2022/04/22 07:00:19;;;;;;;19.60;11.38;;;9.10;99.90;;;;;;5017767;28;20037;-57
2022/04/22 07:02:46;;;;;;;13.30;11.13;;;9.20;99.90;;;;;;5022376;28;20029;-53
2022/04/22 07:05:12;;;;;;;21.05;11.15;;;9.20;99.90;;;;;;5028750;28;20033;-57
2022/04/22 07:07:39;;;;;;;13.32;10.18;;;9.30;99.90;;;;;;5021152;28;20099;-57
2022/04/22 07:10:06;;;;;;;12.00;10.73;;;9.50;99.90;;;;;;5021547;28;20349;-52
2022/04/22 07:12:33;;;;;;;12.57;10.35;;;9.50;99.90;;;;;;5040389;28;20072;-57
2022/04/22 07:15:06;;;;;;;19.73;11.02;;;9.50;99.90;;;;;;5040629;28;20041;-56
2022/04/22 07:17:37;;;;;;;14.20;11.50;;;9.70;99.90;;;;;;5040348;28;20025;-58
2022/04/22 07:20:09;;;;;;;18.45;11.30;;;9.50;99.90;;;;;;5028462;28;20468;-57
2022/04/22 07:22:39;;;;;;;14.50;11.50;;;9.50;99.90;;;;;;5024366;28;20124;-57
2022/04/22 07:25:06;;;;;;;15.65;11.30;;;9.70;99.90;;;;;;5021099;28;20044;-55
2022/04/22 07:27:34;;;;;;;18.02;10.90;;;9.70;99.90;;;;;;5018956;28;20044;-57
2022/04/22 07:30:01;;;;;;;14.70;10.65;;;9.80;99.90;;;;;;5020600;28;20545;-58
2022/04/22 07:32:27;;;;;;;20.25;11.20;;;9.80;99.90;;;;;;5021224;28;20405;-55
2022/04/22 07:34:54;;;;;;;18.15;10.95;;;9.60;99.90;;;;;;5020264;28;20068;-56
2022/04/22 07:37:21;;;;;;;16.42;11.02;;;9.60;99.90;;;;;;5020808;28;20049;-57
2022/04/22 07:39:47;;;;;;;20.63;11.00;;;9.90;99.90;;;;;;5021167;28;20527;-55
2022/04/22 07:42:18;;;;;;;16.50;10.82;;;10.10;99.90;;;;;;5020419;28;20591;-56
2022/04/22 07:47:35;;;;;;;12.90;10.10;;;10.40;99.90;;;;;;5020327;28;20048;-55
2022/04/22 07:50:05;;;;;;;13.40;10.50;;;10.50;99.90;;;;;;5020599;28;20393;-54
2022/04/22 07:52:36;;;;;;;12.25;10.40;;;10.50;99.90;;;;;;5019994;28;20476;-56
2022/04/22 07:55:03;;;;;;;15.77;10.93;;;10.50;99.90;;;;;;5019240;28;20040;-55
2022/04/22 07:57:29;;;;;;;18.20;11.20;;;10.60;99.90;;;;;;5018868;28;20519;-56
2022/04/22 07:59:56;;;;;;;34.70;26.50;;;10.70;99.90;;;;;;5020538;28;20038;-58
2022/04/22 08:02:22;;;;;;;445.60;266.70;;;10.80;99.90;;;;;;5019307;28;20653;-57
2022/04/22 08:04:49;;;;;;;181.48;114.68;;;10.70;99.90;;;;;;5020800;28;20121;-57
2022/04/22 08:07:16;;;;;;;57.53;41.97;;;10.90;99.90;;;;;;5019867;28;20060;-55
2022/04/22 08:09:44;;;;;;;31.13;26.27;;;10.90;99.90;;;;;;5020350;28;20469;-57
2022/04/22 08:12:12;;;;;;;187.25;126.65;;;10.90;99.90;;;;;;5022728;28;20033;-57
2022/04/22 08:14:38;;;;;;;119.70;89.05;;;10.80;99.90;;;;;;5023915;28;20069;-56
2022/04/22 08:17:03;;;;;;;84.40;55.00;;;11.00;99.90;;;;;;5024365;28;20079;-54
2022/04/22 08:19:29;;;;;;;38.22;26.58;;;10.80;99.90;;;;;;5023509;28;20416;-55
2022/04/22 08:21:56;;;;;;;77.47;56.42;;;10.80;99.90;;;;;;5024083;28;20038;-55
2022/04/22 08:24:22;;;;;;;50.22;37.17;;;10.80;99.90;;;;;;5030389;28;20035;-54
2022/04/22 08:26:49;;;;;;;27.60;20.75;;;11.00;99.90;;;;;;5034628;28;20530;-58
2022/04/22 08:29:15;;;;;;;141.25;86.35;;;11.00;99.90;;;;;;5034266;28;20028;-56
2022/04/22 08:31:41;;;;;;;110.50;69.57;;;11.20;99.90;;;;;;5034132;28;20021;-57
2022/04/22 08:34:07;;;;;;;100.47;60.13;;;11.20;99.90;;;;;;5034286;28;20014;-55
2022/04/22 08:36:32;;;;;;;57.85;36.70;;;11.10;99.90;;;;;;5034429;28;20413;-55
2022/04/22 08:38:59;;;;;;;22.50;16.40;;;11.30;99.90;;;;;;5034333;28;20426;-56
2022/04/22 08:41:26;;;;;;;19.55;15.65;;;11.20;99.90;;;;;;5034215;28;20037;-55
2022/04/22 08:43:56;;;;;;;20.08;13.88;;;11.40;99.90;;;;;;5034271;28;20017;-56
2022/04/22 08:52:00;;;;;;;17.35;11.10;;;11.50;99.90;;;;;;5034480;28;20044;-54
2022/04/22 08:54:27;;;;;;;15.30;11.35;;;11.60;99.90;;;;;;5033911;28;20021;-56
2022/04/22 08:56:54;;;;;;;12.75;11.30;;;11.60;99.90;;;;;;5034082;28;20032;-57
2022/04/22 08:59:20;;;;;;;15.52;10.80;;;11.60;99.90;;;;;;5033982;28;20079;-58
2022/04/22 09:01:46;;;;;;;18.05;10.73;;;11.50;99.90;;;;;;5033930;28;20021;-53
2022/04/22 09:04:11;;;;;;;14.30;10.75;;;11.90;99.90;;;;;;5033825;28;20026;-58
2022/04/22 09:06:37;;;;;;;14.90;11.52;;;11.90;99.90;;;;;;5033857;28;20063;-58
2022/04/22 09:09:04;;;;;;;14.23;11.30;;;12.20;99.90;;;;;;5033773;28;20060;-56
2022/04/22 09:11:30;;;;;;;15.40;10.90;;;12.30;99.90;;;;;;5033503;28;20026;-54
2022/04/22 09:14:00;;;;;;;12.10;10.65;;;12.40;99.90;;;;;;5033588;28;20045;-56
2022/04/22 09:16:27;;;;;;;13.50;10.30;;;12.40;99.90;;;;;;5033495;28;20077;-55
2022/04/22 09:19:00;;;;;;;15.52;11.02;;;12.70;99.90;;;;;;5033521;28;20188;-56
2022/04/22 09:21:26;;;;;;;11.18;9.98;;;12.60;99.90;;;;;;5032949;28;20057;-55
2022/04/22 09:23:53;;;;;;;16.25;11.85;;;12.60;99.90;;;;;;5033472;28;20539;-56
2022/04/22 09:26:23;;;;;;;14.75;11.45;;;12.60;99.90;;;;;;5033479;28;20108;-58
2022/04/22 09:28:59;;;;;;;14.90;11.13;;;12.80;99.90;;;;;;5033469;28;20087;-56
2022/04/22 09:31:25;;;;;;;15.25;11.40;;;12.50;99.90;;;;;;5031835;28;20497;-56
2022/04/22 09:33:52;;;;;;;23.63;14.07;;;12.70;99.90;;;;;;5033057;28;20030;-53
2022/04/22 09:45:03;;;;;;;16.40;10.93;;;13.40;99.90;;;;;;5031976;28;20488;-56
2022/04/22 09:47:30;;;;;;;12.50;10.70;;;13.40;99.80;;;;;;5032800;28;20112;-56
2022/04/22 09:49:56;;;;;;;15.57;10.85;;;13.10;99.50;;;;;;5032822;28;20030;-56
2022/04/22 09:52:25;;;;;;;14.73;10.70;;;13.10;99.80;;;;;;5032521;28;20389;-55
2022/04/22 09:55:06;;;;;;;14.40;9.90;;;12.90;99.80;;;;;;5032906;28;20381;-57
2022/04/22 09:57:52;;;;;;;15.02;11.13;;;13.30;99.90;;;;;;5032721;28;20362;-55
2022/04/22 10:00:19;;;;;;;22.05;10.68;;;12.90;99.80;;;;;;5032595;28;20051;-57
2022/04/22 10:02:50;;;;;;;18.50;11.15;;;13.30;99.90;;;;;;5032521;28;20094;-56
2022/04/22 10:05:21;;;;;;;13.68;11.02;;;13.30;99.90;;;;;;5032542;28;20381;-53
2022/04/22 10:07:51;;;;;;;12.43;10.30;;;13.10;99.90;;;;;;5032204;28;20457;-57
2022/04/22 10:10:21;;;;;;;13.38;11.48;;;13.20;99.90;;;;;;5032120;28;20465;-55
2022/04/22 10:12:48;;;;;;;13.43;10.98;;;13.60;99.90;;;;;;5032362;28;20093;-56
2022/04/22 10:15:19;;;;;;;16.92;12.07;;;13.60;99.70;;;;;;5032239;28;20128;-54
2022/04/22 10:17:46;;;;;;;18.20;10.43;;;13.80;99.90;;;;;;5032439;28;20021;-58
2022/04/22 10:20:13;;;;;;;13.80;11.77;;;13.90;99.90;;;;;;5031884;28;20068;-55
2022/04/22 10:22:39;;;;;;;12.05;10.02;;;13.80;99.90;;;;;;5032199;28;20034;-56
2022/04/22 10:25:07;;;;;;;21.23;10.70;;;13.70;99.60;;;;;;5032031;28;20373;-57
2022/04/22 10:27:39;;;;;;;12.95;10.25;;;13.80;99.90;;;;;;5032201;28;20076;-57
2022/04/22 10:30:10;;;;;;;18.40;10.70;;;13.90;99.80;;;;;;5030885;28;20512;-57
2022/04/22 10:32:39;;;;;;;20.58;13.95;;;13.90;99.20;;;;;;5032192;28;20164;-57
2022/04/22 10:35:05;;;;;;;13.38;10.65;;;13.90;99.90;;;;;;5031631;28;20361;-55
2022/04/22 10:37:33;;;;;;;13.55;10.20;;;14.20;99.90;;;;;;5031975;28;20036;-55
2022/04/22 10:39:59;;;;;;;15.65;10.32;;;14.20;99.70;;;;;;5031964;28;20036;-55
2022/04/22 10:42:41;;;;;;;20.58;11.90;;;14.40;99.30;;;;;;5032059;28;20460;-58
2022/04/22 10:47:54;;;;;;;21.73;10.43;;;14.30;99.60;;;;;;5032303;28;20145;-54
2022/04/22 10:50:22;;;;;;;14.10;10.13;;;14.40;99.80;;;;;;5031641;28;20109;-54
2022/04/22 10:53:02;;;;;;;16.02;10.85;;;14.60;99.90;;;;;;5031707;28;20511;-58
2022/04/22 10:55:36;;;;;;;19.35;11.02;;;14.50;99.00;;;;;;5030209;28;20021;-55
2022/04/22 10:58:13;;;;;;;16.13;10.95;;;14.40;99.20;;;;;;5031648;28;20033;-57
2022/04/22 11:00:50;;;;;;;15.88;9.75;;;14.60;99.20;;;;;;5031640;28;20032;-55
2022/04/22 11:03:20;;;;;;;13.73;9.98;;;14.70;99.90;;;;;;5031577;28;20061;-57
2022/04/22 11:05:48;;;;;;;19.45;10.40;;;14.90;99.30;;;;;;5031697;28;20109;-56
2022/04/22 11:08:17;;;;;;;13.52;9.32;;;14.80;99.90;;;;;;5031533;28;20025;-56
2022/04/22 11:10:46;;;;;;;16.75;10.25;;;15.20;99.10;;;;;;5031404;28;20041;-57
2022/04/22 11:13:42;;;;;;;12.93;9.73;;;15.30;99.30;;;;;;5031176;28;20380;-57
2022/04/22 11:16:11;;;;;;;13.18;8.85;;;15.20;99.70;;;;;;5030583;28;20425;-55
2022/04/22 11:18:41;;;;;;;10.57;9.15;;;15.20;99.30;;;;;;5031682;28;20064;-56
2022/04/22 11:21:17;;;;;;;14.77;10.00;;;15.40;99.40;;;;;;5031344;28;20038;-56
2022/04/22 11:23:44;;;;;;;12.02;9.27;;;15.30;98.80;;;;;;5031480;28;20071;-58
2022/04/22 11:26:15;;;;;;;15.35;9.38;;;15.10;99.10;;;;;;5031246;28;20029;-56
2022/04/22 11:28:41;;;;;;;13.70;9.25;;;15.40;98.90;;;;;;5031492;28;20369;-54
2022/04/22 11:31:12;;;;;;;10.30;8.32;;;15.40;98.60;;;;;;5031211;28;20025;-56
2022/04/22 11:33:40;;;;;;;11.35;8.07;;;15.40;98.70;;;;;;5031661;28;20029;-56
2022/04/22 11:36:07;;;;;;;8.82;7.65;;;15.40;99.70;;;;;;5031258;28;20044;-56
2022/04/22 11:38:33;;;;;;;10.82;7.70;;;15.70;99.20;;;;;;5031319;28;20369;-56
2022/04/22 11:40:58;;;;;;;13.00;7.90;;;15.60;99.00;;;;;;5031426;28;20025;-55
2022/04/22 11:43:27;;;;;;;12.70;8.57;;;15.80;99.00;;;;;;5031177;28;20021;-55
2022/04/22 11:45:53;;;;;;;10.88;9.30;;;15.90;98.70;;;;;;5034304;28;20396;-57
2022/04/22 11:48:20;;;;;;;11.02;8.18;;;15.80;98.20;;;;;;5035108;28;20083;-58
2022/04/22 11:50:46;;;;;;;15.98;8.35;;;15.60;98.90;;;;;;5035051;28;20026;-57
2022/04/22 11:53:18;;;;;;;8.98;7.43;;;15.40;99.20;;;;;;5035057;28;20048;-56
2022/04/22 11:55:44;;;;;;;9.73;7.72;;;15.40;99.40;;;;;;5035244;28;20068;-57
2022/04/22 11:58:15;;;;;;;14.25;7.85;;;15.70;99.50;;;;;;5035005;28;20424;-54
2022/04/22 12:06:15;;;;;;;7.53;6.47;;;15.80;99.90;;;;;;5035215;28;20103;-54
2022/04/22 12:09:03;;;;;;;7.57;6.78;;;15.70;99.90;;;;;;5033515;28;20488;-57
2022/04/22 12:11:29;;;;;;;7.32;6.63;;;15.40;99.90;;;;;;5034622;28;20578;-57
2022/04/22 12:13:56;;;;;;;8.27;7.40;;;15.20;99.90;;;;;;5034655;28;20076;-55
2022/04/22 12:16:23;;;;;;;7.45;6.15;;;15.10;99.90;;;;;;5034843;28;20618;-55
2022/04/22 12:18:50;;;;;;;10.43;6.82;;;15.30;99.90;;;;;;5034575;28;20572;-54
2022/04/22 12:21:18;;;;;;;12.88;7.30;;;15.10;99.90;;;;;;5034584;28;20029;-51
2022/04/22 12:23:45;;;;;;;9.05;7.80;;;14.80;99.90;;;;;;5033377;28;20053;-52
2022/04/22 12:26:16;;;;;;;12.07;7.57;;;14.70;99.90;;;;;;5034446;28;20034;-57
2022/04/22 12:29:07;;;;;;;12.50;8.68;;;14.30;99.90;;;;;;5034642;28;20124;-54
2022/04/22 12:31:33;;;;;;;12.90;9.45;;;14.20;99.90;;;;;;5033268;28;20022;-57
2022/04/22 12:34:04;;;;;;;12.15;9.05;;;13.90;99.90;;;;;;5033241;28;20483;-56
2022/04/22 12:36:34;;;;;;;25.90;11.50;;;13.70;99.90;;;;;;5033015;28;20022;-49
2022/04/22 12:38:59;;;;;;;12.52;10.13;;;13.70;99.90;;;;;;5033107;28;20029;-56
2022/04/22 12:41:25;;;;;;;15.52;10.45;;;13.90;99.90;;;;;;5033990;28;20436;-55
2022/04/22 12:43:53;;;;;;;13.50;10.48;;;13.70;99.90;;;;;;5034008;28;20106;-58
2022/04/22 12:52:20;;;;;;;26.92;12.48;;;13.60;99.90;;;;;;5033992;28;20048;-52
2022/04/22 12:54:48;;;;;;;16.63;12.48;;;13.50;99.90;;;;;;5034240;28;20033;-53
2022/04/22 12:57:25;;;;;;;17.67;12.40;;;13.20;99.90;;;;;;5032999;28;20025;-56
2022/04/22 12:59:55;;;;;;;20.50;11.75;;;13.10;99.90;;;;;;5034071;28;20040;-54
2022/04/22 13:02:34;;;;;;;14.15;11.18;;;12.80;99.90;;;;;;5033817;28;20035;-53
2022/04/22 13:05:02;;;;;;;14.52;13.02;;;13.20;99.90;;;;;;5034033;28;20437;-57
2022/04/22 13:07:49;;;;;;;18.85;12.93;;;13.20;99.90;;;;;;5032517;28;20029;-56
2022/04/22 13:10:17;;;;;;;16.55;13.20;;;12.80;99.90;;;;;;5033943;28;20475;-53
2022/04/22 13:12:44;;;;;;;19.55;14.38;;;12.70;99.90;;;;;;5033805;28;20041;-56
2022/04/22 13:15:17;;;;;;;17.15;15.35;;;12.60;99.90;;;;;;5032769;28;20119;-56
2022/04/22 13:17:44;;;;;;;16.50;14.73;;;12.40;99.90;;;;;;5045202;28;20107;-66
2022/04/22 13:20:12;;;;;;;18.25;14.98;;;12.50;99.90;;;;;;5053259;28;20052;-54
2022/04/22 13:22:39;;;;;;;17.35;15.18;;;12.40;99.90;;;;;;5053243;28;20104;-55
2022/04/22 13:25:06;;;;;;;23.05;17.50;;;12.20;99.90;;;;;;5053410;28;20033;-56
2022/04/22 13:27:32;;;;;;;16.67;14.93;;;12.10;99.90;;;;;;5053215;28;20381;-55
2022/04/22 13:29:58;;;;;;;17.70;15.48;;;12.10;99.90;;;;;;5053080;28;20040;-52
2022/04/22 13:32:51;;;;;;;20.80;17.13;;;12.00;99.90;;;;;;5048154;28;20014;-56
2022/04/22 13:35:17;;;;;;;20.15;17.98;;;11.70;99.90;;;;;;5052308;28;20026;-53
2022/04/22 13:37:43;;;;;;;18.73;16.65;;;11.60;99.90;;;;;;5046830;28;20026;-53
2022/04/22 13:40:09;;;;;;;18.45;15.55;;;11.30;99.90;;;;;;5042848;28;20029;-57
2022/04/22 13:42:34;;;;;;;20.30;18.15;;;11.40;99.90;;;;;;5051679;28;20035;-57
2022/04/22 13:53:12;;;;;;;21.83;16.52;;;10.90;99.90;;;;;;5052014;28;20036;-53